• Join FlightAware (Why Join?)
  • Login
  • US Flag 
08:01AM EST


 

Airport Tracker/Info


-or-


 

Live Flight TrackerFlight Track Log ✈ WBR2625 ✈ 13-May-2013 ✈ KORD - KBRL

Flight Track Log - Related Links

Times and Time Zones

All times are in EDT time to prevent confusion due to time zone crossing. See the WBR2625 flight status page for this flight to view local times or setup timezone preferences in your user account.

Time Position Orientation Groundspeed Altitude Reporting Facility
EDT Latitude Longitude Course Direction KTS MPH feet Rate Location/Type
07:57PM 41.9333 -87.9167 236° Southwest 103 119 1,600  Level Chicago TRACON
07:58PM 41.9167 -87.9500 236° Southwest 99 114 2,500 900 Climbing Chicago TRACON
07:59PM 41.9000 -87.9667 217° Southwest 95 109 3,300 840 Climbing Chicago TRACON
08:00PM 41.8833 -87.9833 217° Southwest 94 108 4,200 720 Climbing Chicago TRACON
08:01PM 41.8642 -88.0022 216° Southwest 94 108 4,700 420 Climbing Chicago Center
08:02PM 41.8469 -88.0336 234° Southwest 98 113 5,000 120 Climbing Chicago Center
08:03PM 41.8269 -88.0794 240° Southwest 122 140 5,000  Level Chicago Center
08:04PM 41.8108 -88.1289 246° West 136 157 5,000  Level Chicago Center
08:05PM 41.8142 -88.1981 274° West 149 171 5,000  Level Chicago Center
08:06PM 41.8164 -88.2547 273° West 152 175 5,000  Level Chicago Center
08:07PM 41.8164 -88.3119 270° West 154 177 5,000 480 Level Chicago Center
08:08PM 41.8197 -88.3617 275° West 147 169 6,000 840 Climbing Chicago Center
08:09PM 41.8242 -88.3994 279° West 113 130 6,800 780 Climbing Chicago Center
08:10PM 41.8275 -88.4486 275° West 112 129 7,700 540 Climbing Chicago Center
08:11PM 41.8286 -88.4936 272° West 121 139 8,000 120 Climbing Chicago Center
08:12PM 41.8272 -88.5453 268° West 136 157 8,000  Level Chicago Center
08:13PM 41.8261 -88.5961 268° West 139 160 8,000  Level Chicago Center
08:14PM 41.8264 -88.6456 270° West 135 155 8,000  Level Chicago Center
08:15PM 41.8239 -88.7036 267° West 132 152 8,000 -60 Level Chicago Center
08:16PM 41.8175 -88.7508 260° West 132 152 7,900  Descending Chicago Center
08:17PM 41.7986 -88.7953 240° Southwest 139 160 8,000  Climbing Chicago Center
08:18PM 41.7850 -88.8403 248° West 133 153 8,000 -60 Level Chicago Center
08:19PM 41.7658 -88.8836 239° Southwest 135 155 7,900  Descending Chicago Center
08:20PM 41.7425 -88.9372 240° Southwest 139 160 8,000  Climbing Chicago Center
08:21PM 41.7264 -88.9806 244° Southwest 132 152 8,000  Level Chicago Center
08:23PM 41.7086 -89.0272 243° Southwest 141 162 8,000  Level Chicago Center
08:24PM 41.6886 -89.0753 241° Southwest 148 170 8,000  Level Chicago Center
08:25PM 41.6678 -89.1228 240° Southwest 150 173 8,000 -60 Level Chicago Center
08:26PM 41.6419 -89.1794 239° Southwest 149 171 7,900  Descending Chicago Center
08:27PM 41.6203 -89.2264 238° Southwest 148 170 8,000  Climbing Chicago Center
08:28PM 41.5992 -89.2747 240° Southwest 151 174 8,000  Level Chicago Center
08:29PM 41.5786 -89.3222 240° Southwest 151 174 8,000  Level Chicago Center
08:30PM 41.5567 -89.3683 238° Southwest 149 171 8,000  Level Chicago Center
08:31PM 41.5319 -89.4256 240° Southwest 150 173 8,000  Level Chicago Center
08:32PM 41.5094 -89.4739 238° Southwest 151 174 8,000  Level Chicago Center
08:33PM 41.4853 -89.5200 235° Southwest 152 175 8,000  Level Chicago Center
08:34PM 41.4689 -89.5692 246° West 148 170 8,000  Level Chicago Center
08:35PM 41.4483 -89.6189 241° Southwest 150 173 8,000  Level Chicago Center
08:36PM 41.4275 -89.6675 240° Southwest 151 174 8,000  Level Chicago Center
08:37PM 41.4078 -89.7158 241° Southwest 149 171 8,100  Climbing Chicago Center
08:38PM 41.3833 -89.7717 240° Southwest 147 169 8,100  Level Chicago Center
08:39PM 41.3642 -89.8194 242° Southwest 147 169 8,100 -60 Level Chicago Center
08:40PM 41.3425 -89.8664 238° Southwest 148 170 8,000 -60 Descending Chicago Center
08:41PM 41.3231 -89.9147 242° Southwest 148 170 8,000  Level Chicago Center
08:42PM 41.3031 -89.9611 240° Southwest 146 168 8,100  Climbing Chicago Center
08:43PM 41.2836 -90.0072 241° Southwest 144 166 8,100 -60 Level Chicago Center
08:44PM 41.2592 -90.0622 239° Southwest 144 166 8,000 -60 Descending Chicago Center
08:45PM 41.2394 -90.1064 239° Southwest 141 162 8,000  Level Chicago Center
08:46PM 41.2208 -90.1506 241° Southwest 138 159 8,000  Level Chicago Center
08:47PM 41.2000 -90.1936 237° Southwest 138 159 8,000  Level Chicago Center
08:48PM 41.1792 -90.2344 236° Southwest 135 155 8,100  Climbing Chicago Center
08:49PM 41.1539 -90.2847 236° Southwest 137 158 8,100  Level Chicago Center
08:50PM 41.1344 -90.3281 239° Southwest 137 158 8,100 -60 Level Chicago Center
08:51PM 41.1183 -90.3678 242° Southwest 132 152 8,000 -60 Descending Chicago Center
08:53PM 41.0992 -90.4111 240° Southwest 133 153 8,000  Level Chicago Center
08:54PM 41.0839 -90.4533 244° Southwest 129 148 8,000  Level Chicago Center
08:55PM 41.0678 -90.4947 243° Southwest 128 147 8,000  Level Chicago Center
08:56PM 41.0450 -90.5436 238° Southwest 130 150 8,100  Climbing Chicago Center
08:57PM 41.0253 -90.5828 236° Southwest 129 148 8,000 -60 Descending Chicago Center
08:58PM 41.0017 -90.6206 230° Southwest 131 151 8,000  Level Chicago Center
08:59PM 40.9794 -90.6608 234° Southwest 134 154 8,000 -240 Level Chicago Center
09:00PM 40.9622 -90.7028 241° Southwest 132 152 7,600 -540 Descending Chicago Center
09:01PM 40.9481 -90.7475 247° West 133 153 6,900 -780 Descending Chicago Center
09:02PM 40.9331 -90.8053 251° West 138 159 6,000 -780 Descending Chicago Center
09:03PM 40.9175 -90.8511 246° West 138 159 5,400 -600 Descending Chicago Center
09:04PM 40.9039 -90.8928 247° West 131 151 4,800 -600 Descending Chicago Center
09:05PM 40.8914 -90.9361 249° West 128 147 4,200 -540 Descending Chicago Center
09:06PM 40.8778 -90.9767 246° West 125 144 3,700 -540 Descending Chicago Center
09:07PM 40.8622 -91.0164 243° Southwest 122 140 3,200 -540 Descending Chicago Center
09:08PM 40.8431 -91.0631 242° Southwest 121 139 2,600 -540 Descending Chicago Center
09:09PM 40.8286 -91.0986 242° Southwest 121 139 2,200 -420 Descending Chicago Center
09:10PM 40.8136 -91.1394 244° Southwest 120 138 1,800 -420 Descending Chicago Center